ETNL/RLG METAR and TAF weather

Enter ICAO airport designator
Station Type Date Time Source
ETNL METAR 2021/03/02 15:20 UTC NOAA

ETNL 021520Z 32002KT 9999 FEW300 07/04 Q1033 BLU+BLU+


Station Type Date Time Source
ETNL Decoded METAR 2021/03/02 15:20 UTC NOAA

Laage, Germany (ETNL) 53-55N 012-17E 46M
Mar 02, 2021 - 10:20 AM EST / 2021.03.02 1520 UTC
Wind: from the NW (320 degrees) at 2 MPH (2 KT):0
Visibility: greater than 7 mile(s):0
Sky conditions: mostly clear
Temperature: 44 F (7 C)
Dew Point: 39 F (4 C)
Relative Humidity: 81%
Pressure (altimeter): 30.50 in. Hg (1033 hPa)
ob: ETNL 021520Z 32002KT 9999 FEW300 07/04 Q1033 BLU+BLU+
cycle: 15

Station Type Date Time Source
ETNL TAF 2020/10/28 18:00 UTC NOAA

TAF ETNL 281710Z 2818/2906 20007KT 9999 NSW FEW030 BKN120
TEMPO 2818/2821 19010G20KT 4000 SHRA BKN010TCU
TEMPO 2821/2906 19010G20KT 3000 SHRA BKN010CB BY ETGL

Example: see airport list